createdAt,value
2019-02-08T00:01:26.577Z,7.29
2019-02-08T00:03:56.189Z,7.23
2019-02-08T00:06:25.444Z,7.19
2019-02-08T00:08:55.617Z,7.22
2019-02-08T00:11:25.252Z,6.91
2019-02-08T00:13:54.930Z,6.83
2019-02-08T00:16:24.683Z,6.82
2019-02-08T00:18:53.897Z,6.76
2019-02-08T00:21:23.306Z,6.88
2019-02-08T00:23:52.570Z,6.82
2019-02-08T00:26:22.313Z,6.88
2019-02-08T00:28:52.526Z,6.80
2019-02-08T00:31:21.965Z,6.82
2019-02-08T00:33:51.187Z,6.77
2019-02-08T00:36:20.455Z,6.77
2019-02-08T00:38:49.803Z,6.54
2019-02-08T00:41:19.050Z,6.49
2019-02-08T00:43:48.311Z,6.51
2019-02-08T00:46:17.612Z,6.54
2019-02-08T00:48:47.038Z,6.66
2019-02-08T00:51:16.328Z,6.71
2019-02-08T00:53:45.624Z,6.58
2019-02-08T00:56:15.350Z,6.54
2019-02-08T00:58:44.769Z,6.57
2019-02-08T01:01:14.223Z,6.61
2019-02-08T01:03:43.946Z,6.44
2019-02-08T01:06:14.595Z,6.18
2019-02-08T01:08:44.427Z,6.03
2019-02-08T01:11:13.751Z,5.95
2019-02-08T01:13:45.126Z,5.95
2019-02-08T01:16:14.519Z,5.79
2019-02-08T01:18:44.319Z,5.62
2019-02-08T01:21:13.435Z,5.67
2019-02-08T01:23:43.099Z,5.50
2019-02-08T01:26:15.277Z,5.72
2019-02-08T01:28:44.589Z,5.96
2019-02-08T01:31:13.993Z,6.00
2019-02-08T01:33:43.361Z,6.17
2019-02-08T01:36:12.731Z,6.31
2019-02-08T01:38:42.269Z,6.42
2019-02-08T01:41:11.670Z,6.41
2019-02-08T01:43:41.090Z,6.43
2019-02-08T01:46:10.451Z,6.47
2019-02-08T01:48:39.874Z,6.56
2019-02-08T01:51:09.179Z,6.56
2019-02-08T01:53:38.686Z,6.57
2019-02-08T01:56:08.196Z,6.60
2019-02-08T01:58:37.986Z,6.59
2019-02-08T02:01:07.662Z,6.63
2019-02-08T02:03:36.856Z,6.72
2019-02-08T02:06:06.606Z,6.68
2019-02-08T02:08:35.951Z,6.74
2019-02-08T02:11:06.011Z,6.76
2019-02-08T02:13:35.406Z,6.75
2019-02-08T02:16:05.246Z,6.69
2019-02-08T02:18:34.468Z,6.66
2019-02-08T02:21:03.846Z,6.59
2019-02-08T02:23:33.323Z,6.73
2019-02-08T02:26:02.802Z,6.84
2019-02-08T02:28:33.702Z,6.70
2019-02-08T02:31:03.277Z,6.58
2019-02-08T02:33:32.641Z,6.63
2019-02-08T02:36:02.487Z,6.67
2019-02-08T02:38:31.824Z,6.62
2019-02-08T02:41:01.481Z,6.59
2019-02-08T02:43:32.524Z,6.69
2019-02-08T02:46:01.755Z,6.71
2019-02-08T02:48:30.986Z,6.95
2019-02-08T02:51:00.720Z,6.89
2019-02-08T02:53:30.050Z,6.95
2019-02-08T02:55:59.361Z,7.04
2019-02-08T02:58:28.652Z,7.02
2019-02-08T03:00:57.951Z,7.02
2019-02-08T03:03:27.627Z,7.00
2019-02-08T03:05:56.876Z,7.09
2019-02-08T03:08:26.453Z,7.09
2019-02-08T03:10:56.434Z,7.04
2019-02-08T03:13:25.894Z,6.99
2019-02-08T03:15:55.274Z,7.04
2019-02-08T03:18:24.576Z,7.10
2019-02-08T03:20:54.904Z,6.99
2019-02-08T03:23:24.321Z,7.16
2019-02-08T03:25:54.070Z,7.01
2019-02-08T03:28:24.302Z,6.93
2019-02-08T03:30:56.457Z,6.99
2019-02-08T03:33:26.472Z,6.95
2019-02-08T03:35:55.774Z,6.97
2019-02-08T03:38:26.118Z,6.89
2019-02-08T03:40:55.353Z,6.85
2019-02-08T03:43:24.731Z,6.93
2019-02-08T03:45:54.458Z,6.89
2019-02-08T03:48:23.826Z,6.90
2019-02-08T03:50:52.967Z,6.86
2019-02-08T03:53:22.551Z,6.74
2019-02-08T03:55:58.013Z,6.74
2019-02-08T03:58:23.350Z,6.68
2019-02-08T04:00:57.375Z,6.64
2019-02-08T04:03:26.631Z,6.59
2019-02-08T04:05:55.948Z,6.65
2019-02-08T04:08:25.392Z,6.80
2019-02-08T04:10:54.818Z,6.80
2019-02-08T04:13:24.603Z,6.84
2019-02-08T04:15:54.666Z,6.84
2019-02-08T04:18:24.028Z,6.84
2019-02-08T04:20:53.279Z,6.87
2019-02-08T04:23:22.633Z,6.82
2019-02-08T04:25:51.978Z,6.87
2019-02-08T04:28:21.267Z,6.84
2019-02-08T04:30:50.679Z,6.83
2019-02-08T04:33:20.163Z,6.92
2019-02-08T04:35:49.921Z,6.92
2019-02-08T04:38:19.681Z,6.87
2019-02-08T04:40:48.857Z,6.89
2019-02-08T04:43:18.146Z,6.88
2019-02-08T04:45:47.427Z,6.85
2019-02-08T04:48:16.809Z,6.91
2019-02-08T04:50:46.203Z,6.80
2019-02-08T04:53:15.489Z,6.81
2019-02-08T04:55:44.858Z,6.69
2019-02-08T04:58:14.161Z,6.65
2019-02-08T05:00:44.067Z,6.61
2019-02-08T05:03:13.239Z,6.68
2019-02-08T05:05:43.431Z,6.70
2019-02-08T05:08:13.062Z,6.68
2019-02-08T05:10:42.375Z,6.66
2019-02-08T05:13:12.107Z,6.65
2019-02-08T05:15:41.502Z,6.63
2019-02-08T05:18:10.826Z,6.54
2019-02-08T05:20:40.084Z,6.43
2019-02-08T05:23:09.338Z,6.36
2019-02-08T05:25:38.556Z,6.32
2019-02-08T05:28:07.978Z,6.30
2019-02-08T05:30:37.408Z,6.23
2019-02-08T05:33:06.907Z,6.19
2019-02-08T05:35:36.521Z,6.14
2019-02-08T05:38:06.157Z,6.21
2019-02-08T05:40:35.572Z,6.19
2019-02-08T05:43:05.570Z,6.31
2019-02-08T05:45:34.876Z,6.28
2019-02-08T05:48:04.201Z,6.21
2019-02-08T05:50:33.487Z,6.27
2019-02-08T05:53:02.863Z,6.11
2019-02-08T05:55:32.916Z,6.05
2019-02-08T05:58:02.430Z,5.97
2019-02-08T06:00:43.350Z,5.96
2019-02-08T06:03:12.586Z,5.95
2019-02-08T06:05:42.282Z,5.94
2019-02-08T06:08:11.577Z,5.93
2019-02-08T06:10:40.834Z,5.91
2019-02-08T06:13:10.449Z,5.95
2019-02-08T06:15:40.196Z,5.95
2019-02-08T06:18:11.030Z,5.96
2019-02-08T06:20:41.425Z,6.02
2019-02-08T06:23:11.146Z,5.99
2019-02-08T06:25:40.400Z,6.02
2019-02-08T06:28:09.743Z,6.03
2019-02-08T06:30:40.010Z,6.02
2019-02-08T06:33:09.447Z,6.06
2019-02-08T06:35:38.764Z,6.03
2019-02-08T06:38:08.655Z,6.04
2019-02-08T06:40:41.205Z,6.07
2019-02-08T06:43:10.978Z,6.08
2019-02-08T06:45:40.376Z,6.13
2019-02-08T06:48:11.163Z,6.12
2019-02-08T06:50:41.000Z,6.17
2019-02-08T06:53:10.313Z,6.21
2019-02-08T06:55:39.632Z,6.28
2019-02-08T06:58:40.304Z,6.32
2019-02-08T07:01:31.484Z,6.25
2019-02-08T07:04:18.608Z,6.30
2019-02-08T07:06:57.189Z,6.32
2019-02-08T07:09:44.741Z,6.30
2019-02-08T07:12:30.766Z,6.26
2019-02-08T07:15:15.013Z,6.27
2019-02-08T07:17:55.404Z,6.39
2019-02-08T07:21:04.983Z,6.32
2019-02-08T07:23:47.549Z,6.36
2019-02-08T07:26:34.914Z,6.27
2019-02-08T07:29:26.815Z,6.32
2019-02-08T07:32:23.112Z,6.29
2019-02-08T07:35:18.152Z,6.44
2019-02-08T07:38:21.463Z,6.30
2019-02-08T07:41:24.115Z,6.31
2019-02-08T07:44:15.495Z,6.28
2019-02-08T07:47:23.345Z,6.31
2019-02-08T07:50:35.081Z,6.32
2019-02-08T07:53:19.059Z,6.31
2019-02-08T07:55:55.257Z,6.32
2019-02-08T07:58:32.176Z,6.32
2019-02-08T08:01:23.819Z,6.30
2019-02-08T08:04:05.309Z,6.32
2019-02-08T08:06:48.030Z,6.38
2019-02-08T08:09:46.192Z,6.35
2019-02-08T08:12:47.613Z,6.37
2019-02-08T08:15:52.175Z,6.43
2019-02-08T08:18:55.849Z,6.54
2019-02-08T08:21:52.400Z,6.68
2019-02-08T08:24:43.819Z,6.75
2019-02-08T08:27:47.236Z,6.77
2019-02-08T08:31:05.415Z,6.84
2019-02-08T08:34:18.781Z,6.91
2019-02-08T08:41:31.651Z,6.96
2019-02-08T08:44:44.037Z,7.11
2019-02-08T08:47:41.340Z,7.22
2019-02-08T08:50:54.804Z,7.30
2019-02-08T08:54:06.482Z,7.34
2019-02-08T08:57:03.758Z,7.53
2019-02-08T09:00:15.141Z,7.64
2019-02-08T09:03:24.145Z,7.84
2019-02-08T09:06:44.528Z,7.85
2019-02-08T09:10:06.770Z,7.90
2019-02-08T09:13:31.271Z,7.90
2019-02-08T09:16:33.934Z,7.87
2019-02-08T09:19:46.851Z,7.86
2019-02-08T09:22:36.892Z,7.90
2019-02-08T09:25:29.530Z,8.03
2019-02-08T09:28:49.191Z,7.98
2019-02-08T09:32:14.051Z,8.01
2019-02-08T09:35:45.795Z,8.01
2019-02-08T09:38:44.983Z,8.02
2019-02-08T09:41:50.019Z,8.08
2019-02-08T09:44:54.339Z,8.15
2019-02-08T09:48:06.665Z,8.18
2019-02-08T09:51:23.126Z,8.26
2019-02-08T09:54:36.638Z,8.38
2019-02-08T09:57:34.657Z,8.42
2019-02-08T10:00:29.797Z,8.27
2019-02-08T10:03:33.744Z,8.25
2019-02-08T10:06:49.577Z,8.28
2019-02-08T10:10:07.515Z,8.35
2019-02-08T10:13:34.257Z,8.35
2019-02-08T10:16:43.446Z,8.42
2019-02-08T10:19:53.666Z,8.59
2019-02-08T10:23:17.273Z,8.69
2019-02-08T10:26:30.897Z,8.70
2019-02-08T10:33:44.698Z,8.84
2019-02-08T10:37:13.565Z,8.86
2019-02-08T10:40:07.797Z,8.95
2019-02-08T10:43:21.107Z,9.06
2019-02-08T10:46:26.372Z,9.17
2019-02-08T10:49:52.227Z,9.20
2019-02-08T10:52:54.388Z,9.24
2019-02-08T10:56:01.233Z,9.36
2019-02-08T10:59:18.450Z,9.42
2019-02-08T11:02:33.775Z,9.40
2019-02-08T11:05:53.122Z,9.47
2019-02-08T11:09:11.754Z,9.37
2019-02-08T11:12:18.070Z,9.36
2019-02-08T11:15:18.830Z,9.41
2019-02-08T11:18:23.210Z,9.47
2019-02-08T11:20:53.870Z,9.53
2019-02-08T11:23:23.297Z,9.57
2019-02-08T11:25:57.730Z,9.56
2019-02-08T11:28:27.757Z,9.69
2019-02-08T11:30:57.147Z,9.72
2019-02-08T11:33:31.425Z,9.77
2019-02-08T11:36:01.086Z,9.83
2019-02-08T11:38:31.143Z,9.79
2019-02-08T11:41:00.565Z,9.74
2019-02-08T11:43:40.442Z,9.76
2019-02-08T11:46:09.835Z,9.78
2019-02-08T11:48:40.738Z,9.75
2019-02-08T11:51:10.113Z,9.70
2019-02-08T11:53:39.338Z,9.70
2019-02-08T11:56:08.821Z,9.68
2019-02-08T11:58:38.074Z,9.67
2019-02-08T12:01:07.401Z,9.72
2019-02-08T12:03:36.841Z,9.86
2019-02-08T12:06:07.059Z,9.96
2019-02-08T12:08:36.397Z,10.02
2019-02-08T12:11:05.803Z,10.10
2019-02-08T12:13:36.082Z,10.10
2019-02-08T12:16:05.410Z,10.10
2019-02-08T12:18:34.692Z,10.27
2019-02-08T12:21:03.896Z,10.47
2019-02-08T12:23:33.279Z,10.59
2019-02-08T12:26:02.941Z,10.58
2019-02-08T12:28:32.189Z,10.62
2019-02-08T12:31:01.430Z,10.66
2019-02-08T12:33:30.634Z,10.69
2019-02-08T12:35:59.882Z,10.82
2019-02-08T12:38:29.184Z,10.93
2019-02-08T12:40:58.537Z,11.03
2019-02-08T12:43:27.794Z,11.17
2019-02-08T12:45:57.135Z,11.27
2019-02-08T12:48:26.482Z,11.30
2019-02-08T12:50:55.896Z,11.29
2019-02-08T12:53:28.442Z,11.41
2019-02-08T12:55:57.662Z,11.39
2019-02-08T12:58:26.880Z,11.39
2019-02-08T13:00:56.171Z,11.38
2019-02-08T13:03:25.645Z,11.33
2019-02-08T13:05:54.965Z,11.27
2019-02-08T13:08:24.258Z,11.20
2019-02-08T13:10:53.566Z,11.17
2019-02-08T13:13:28.887Z,11.08
2019-02-08T13:15:58.227Z,11.01
2019-02-08T13:18:27.518Z,10.92
2019-02-08T13:20:56.906Z,10.95
2019-02-08T13:23:27.324Z,10.87
2019-02-08T13:25:56.718Z,10.82
2019-02-08T13:28:25.878Z,10.75
2019-02-08T13:30:55.088Z,10.78
2019-02-08T13:33:24.493Z,10.73
2019-02-08T13:35:53.700Z,10.74
2019-02-08T13:38:23.047Z,10.76
2019-02-08T13:40:52.327Z,10.77
2019-02-08T13:43:21.756Z,10.66
2019-02-08T13:45:50.993Z,10.63
2019-02-08T13:48:20.207Z,10.59
2019-02-08T13:50:49.873Z,10.59
2019-02-08T13:53:25.139Z,10.55
2019-02-08T13:55:57.948Z,10.43
2019-02-08T13:58:31.180Z,10.39
2019-02-08T14:01:02.260Z,10.59
2019-02-08T14:03:41.125Z,10.92
2019-02-08T14:06:11.615Z,11.03
2019-02-08T14:08:42.597Z,11.23
2019-02-08T14:11:11.999Z,11.38
2019-02-08T14:13:41.441Z,11.27
2019-02-08T14:16:11.051Z,11.17
2019-02-08T14:18:41.601Z,11.04
2019-02-08T14:21:11.045Z,10.93
2019-02-08T14:23:40.601Z,10.90
2019-02-08T14:26:09.860Z,10.83
2019-02-08T14:28:39.237Z,10.91
2019-02-08T14:31:08.521Z,10.79
2019-02-08T14:33:44.312Z,10.74
2019-02-08T14:36:14.478Z,10.65
2019-02-08T14:38:43.774Z,10.53
2019-02-08T14:41:13.479Z,10.56
2019-02-08T14:43:42.979Z,10.50
2019-02-08T14:46:13.400Z,10.48
2019-02-08T14:48:44.207Z,10.40
2019-02-08T14:51:14.037Z,10.35
2019-02-08T14:53:45.960Z,10.28
2019-02-08T14:56:15.543Z,10.30
2019-02-08T14:58:45.734Z,10.20
2019-02-08T15:01:17.327Z,10.23
2019-02-08T15:03:47.792Z,10.21
2019-02-08T15:06:18.208Z,10.18
2019-02-08T15:08:48.390Z,10.17
2019-02-08T15:11:17.747Z,10.23
2019-02-08T15:13:47.428Z,10.20
2019-02-08T15:16:17.491Z,10.15
2019-02-08T15:18:48.435Z,10.12
2019-02-08T15:21:19.973Z,10.07
2019-02-08T15:23:50.590Z,10.07
2019-02-08T15:26:20.894Z,9.99
2019-02-08T15:28:50.280Z,10.00
2019-02-08T15:31:19.752Z,9.97
2019-02-08T15:33:49.192Z,9.92
2019-02-08T15:36:18.484Z,9.96
2019-02-08T15:38:49.912Z,9.96
2019-02-08T15:41:19.179Z,9.99
2019-02-08T15:43:49.878Z,9.94
2019-02-08T15:46:19.338Z,9.91
2019-02-08T15:48:49.545Z,10.01
2019-02-08T15:51:19.143Z,9.98
2019-02-08T15:53:48.585Z,9.86
2019-02-08T15:56:18.417Z,9.92
2019-02-08T15:58:48.276Z,9.92
2019-02-08T16:01:19.147Z,9.92
2019-02-08T16:03:49.352Z,9.88
2019-02-08T16:06:19.955Z,9.84
2019-02-08T16:08:49.572Z,9.85
2019-02-08T16:11:19.146Z,9.81
2019-02-08T16:13:48.881Z,9.75
2019-02-08T16:16:18.541Z,9.67
2019-02-08T16:18:47.974Z,9.68
2019-02-08T16:21:17.604Z,9.66
2019-02-08T16:23:47.401Z,9.65
2019-02-08T16:26:16.950Z,9.64
2019-02-08T16:33:49.019Z,9.51
2019-02-08T16:36:18.408Z,9.54
2019-02-08T16:38:48.088Z,9.58
2019-02-08T16:41:17.747Z,9.47
2019-02-08T16:43:47.472Z,9.50
2019-02-08T16:46:17.107Z,9.41
2019-02-08T16:48:46.659Z,9.35
2019-02-08T16:51:16.212Z,9.39
2019-02-08T16:53:53.072Z,9.32
2019-02-08T16:56:17.300Z,9.32
2019-02-08T16:58:48.172Z,9.37
2019-02-08T17:01:17.894Z,9.32
2019-02-08T17:03:47.556Z,9.31
2019-02-08T17:06:17.252Z,9.37
2019-02-08T17:08:46.927Z,9.28
2019-02-08T17:11:16.721Z,9.29
2019-02-08T17:13:46.557Z,9.39
2019-02-08T17:16:16.350Z,9.39
2019-02-08T17:18:45.861Z,9.31
2019-02-08T17:21:15.397Z,9.29
2019-02-08T17:23:44.945Z,9.28
2019-02-08T17:26:14.553Z,9.16
2019-02-08T17:28:44.168Z,9.20
2019-02-08T17:31:13.817Z,9.19
2019-02-08T17:33:43.492Z,9.22
2019-02-08T17:36:13.174Z,9.21
2019-02-08T17:38:43.597Z,9.19
2019-02-08T17:41:13.332Z,9.20
2019-02-08T17:43:42.975Z,9.27
2019-02-08T17:46:12.740Z,9.22
2019-02-08T17:48:42.257Z,9.25
2019-02-08T17:51:11.819Z,9.19
2019-02-08T17:53:41.497Z,9.20
2019-02-08T17:56:11.427Z,9.19
2019-02-08T17:58:41.098Z,9.26
2019-02-08T18:01:12.050Z,9.26
2019-02-08T18:03:41.957Z,9.28
2019-02-08T18:06:12.537Z,9.24
2019-02-08T18:08:42.747Z,9.24
2019-02-08T18:11:12.303Z,9.22
2019-02-08T18:13:42.018Z,9.20
2019-02-08T18:16:11.638Z,9.20
2019-02-08T18:18:41.267Z,9.23
2019-02-08T18:21:12.180Z,9.20
2019-02-08T18:23:43.339Z,9.14
2019-02-08T18:26:13.344Z,9.13
2019-02-08T18:28:43.117Z,9.15
2019-02-08T18:31:12.777Z,9.19
2019-02-08T18:33:42.558Z,9.18
2019-02-08T18:36:12.072Z,9.16
2019-02-08T18:38:42.576Z,9.09
2019-02-08T18:41:12.228Z,9.11
2019-02-08T18:43:41.907Z,9.15
2019-02-08T18:46:11.971Z,9.16
2019-02-08T18:48:43.104Z,9.18
2019-02-08T18:51:12.797Z,9.18
2019-02-08T18:53:42.485Z,9.16
2019-02-08T18:56:12.123Z,9.17
2019-02-08T18:58:41.839Z,9.16
2019-02-08T19:01:11.802Z,9.26
2019-02-08T19:03:41.834Z,9.26
2019-02-08T19:06:11.525Z,9.24
2019-02-08T19:08:41.945Z,9.26
2019-02-08T19:11:11.755Z,9.22
2019-02-08T19:13:41.284Z,9.23
2019-02-08T19:16:11.043Z,9.28
2019-02-08T19:18:40.716Z,9.30
2019-02-08T19:21:11.349Z,9.31
2019-02-08T19:23:41.506Z,9.46
2019-02-08T19:26:11.282Z,9.44
2019-02-08T19:28:40.903Z,9.38
2019-02-08T19:31:10.682Z,9.51
2019-02-08T19:33:40.455Z,9.49
2019-02-08T19:36:10.096Z,9.51
2019-02-08T19:38:39.739Z,9.57
2019-02-08T19:41:12.036Z,9.60
2019-02-08T19:43:41.739Z,9.59
2019-02-08T19:46:11.923Z,9.53
2019-02-08T19:48:41.574Z,9.52
2019-02-08T19:51:12.271Z,9.42
2019-02-08T19:53:42.414Z,9.45
2019-02-08T19:56:12.197Z,9.41
2019-02-08T19:58:42.092Z,9.37
2019-02-08T20:01:12.111Z,9.30
2019-02-08T20:03:41.814Z,9.28
2019-02-08T20:06:12.172Z,9.26
2019-02-08T20:08:41.772Z,9.29
2019-02-08T20:11:11.912Z,9.37
2019-02-08T20:13:42.271Z,9.33
2019-02-08T20:16:11.939Z,9.29
2019-02-08T20:18:41.466Z,9.41
2019-02-08T20:21:11.185Z,9.43
2019-02-08T20:23:40.908Z,9.45
2019-02-08T20:26:10.587Z,9.44
2019-02-08T20:28:42.661Z,9.48
2019-02-08T20:31:12.498Z,9.48
2019-02-08T20:33:42.555Z,9.47
2019-02-08T20:36:12.249Z,9.47
2019-02-08T20:38:41.891Z,9.53
2019-02-08T20:41:11.651Z,9.49
2019-02-08T20:43:41.483Z,9.50
2019-02-08T20:46:11.358Z,9.51
2019-02-08T20:48:41.133Z,9.52
2019-02-08T20:51:11.318Z,9.50
2019-02-08T20:53:41.211Z,9.44
2019-02-08T20:56:10.925Z,9.56
2019-02-08T20:58:40.608Z,9.52
2019-02-08T21:01:10.575Z,9.44
2019-02-08T21:03:40.428Z,9.40
2019-02-08T21:06:10.386Z,9.35
2019-02-08T21:08:40.136Z,9.32
2019-02-08T21:11:10.804Z,9.38
2019-02-08T21:13:40.555Z,9.42
2019-02-08T21:16:10.473Z,9.49
2019-02-08T21:18:40.086Z,9.49
2019-02-08T21:21:09.948Z,9.43
2019-02-08T21:23:39.572Z,9.43
2019-02-08T21:26:10.824Z,9.38
2019-02-08T21:28:41.464Z,9.38
2019-02-08T21:31:11.266Z,9.41
2019-02-08T21:33:40.955Z,9.38
2019-02-08T21:36:10.775Z,9.38
2019-02-08T21:38:40.418Z,9.30
2019-02-08T21:41:10.189Z,9.34
2019-02-08T21:43:39.851Z,9.35
2019-02-08T21:46:10.083Z,9.31
2019-02-08T21:48:39.814Z,9.40
2019-02-08T21:51:09.436Z,9.42
2019-02-08T21:53:38.971Z,9.46
2019-02-08T21:56:09.127Z,9.52
2019-02-08T21:58:38.900Z,9.53
2019-02-08T22:01:08.901Z,9.53
2019-02-08T22:03:38.510Z,9.51
2019-02-08T22:06:10.320Z,9.55
2019-02-08T22:08:40.463Z,9.56
2019-02-08T22:11:10.028Z,9.65
2019-02-08T22:13:39.914Z,9.61
2019-02-08T22:16:10.018Z,9.57
2019-02-08T22:18:39.668Z,9.53
2019-02-08T22:21:09.240Z,9.49
2019-02-08T22:23:38.638Z,9.53
2019-02-08T22:26:09.959Z,9.49
2019-02-08T22:28:39.512Z,9.40
2019-02-08T22:31:08.806Z,9.34
2019-02-08T22:33:38.150Z,9.24
2019-02-08T22:36:08.091Z,9.14
2019-02-08T22:38:38.054Z,9.04
2019-02-08T22:41:07.718Z,8.98
2019-02-08T22:43:37.322Z,8.90
2019-02-08T22:49:42.024Z,8.70
2019-02-08T22:52:25.242Z,8.59
2019-02-08T22:55:19.272Z,8.46
2019-02-08T22:58:20.978Z,8.12
2019-02-08T23:01:32.432Z,7.96
2019-02-08T23:04:06.756Z,7.83
2019-02-08T23:06:44.818Z,7.67
2019-02-08T23:09:23.680Z,7.62
2019-02-08T23:11:53.740Z,7.51
2019-02-08T23:14:24.280Z,7.47
2019-02-08T23:16:54.071Z,7.38
2019-02-08T23:19:23.812Z,7.42
2019-02-08T23:21:54.958Z,7.35
2019-02-08T23:24:24.825Z,7.29
2019-02-08T23:26:54.803Z,7.31
2019-02-08T23:29:30.163Z,7.34
2019-02-08T23:31:58.311Z,7.31
2019-02-08T23:34:27.991Z,7.28
2019-02-08T23:36:58.414Z,7.29
2019-02-08T23:39:27.897Z,7.23
2019-02-08T23:41:57.671Z,7.27
2019-02-08T23:44:29.322Z,7.23
2019-02-08T23:46:58.665Z,7.21
2019-02-08T23:49:28.577Z,7.22
2019-02-08T23:51:58.577Z,7.21
2019-02-08T23:54:27.893Z,7.20
2019-02-08T23:56:57.540Z,7.18
2019-02-08T23:59:28.352Z,7.17
